Language: 


Des rapports , des résumés tant et plus, au choix de chacun....


Données statistiques de la station
Quotidien Rapport Mars 10, 2017 Unités:  Anglais    Métrique   les deux
« Précédent Jour
Suivant Jour »
Quotidien Hebdomadaire Mensuel Annuel Actuel
  Haut: Bas: Moyen:
Température: 61.5 °F 32 °F 47.3 °F
Pt de rosée: 49.3 °F 35.6 °F 40.1 °F
Humidité: 98 % 0 % 79 %
Vitesse du vent: 9.6 mph 0 mph 2.5 mph
Rafales: 12.8 mph - -
Vent:- - SE
Pression: 30.4 in 0 in -
Précipitation: 0 in    
Historical Graphs
 
 
Données statistiques pour Mars 10, 2017
Heure Température Point de rosée Pression Vent Vitesse du vent Refales Humidité Pluie (taux horaire)
00:01 42.3 °F 38.8 °F 30.3 in North 3.1 mph 3.8 mph 88 % 0 in
00:06 42.3 °F 38.8 °F 30.3 in Calm   3.8 mph 88 % 0 in
00:11 42.1 °F 39 °F 30.3 in Calm   3.8 mph 89 % 0 in
00:16 41.7 °F 38.5 °F 30.3 in Calm     88 % 0 in
00:21 41.4 °F 38.1 °F 30.3 in Calm     88 % 0 in
00:26 41.2 °F 37.9 °F 30.3 in Calm     88 % 0 in
00:31 40.6 °F 37.4 °F 30.3 in Calm     88 % 0 in
00:36 40.5 °F 37.2 °F 30.3 in NNE 2 mph 2 mph 88 % 0 in
00:41 40.5 °F 37.6 °F 30.3 in Calm   2.9 mph 89 % 0 in
00:46 40.3 °F 37.6 °F 30.3 in Calm   2.9 mph 90 % 0 in
00:51 39.9 °F 37.2 °F 30.3 in Calm     90 % 0 in
00:56 39.7 °F 37 °F 30.3 in Calm     90 % 0 in
01:01 39.4 °F 36.7 °F 30.3 in NE 0.9 mph 0.9 mph 90 % 0 in
01:06 39.2 °F 36.5 °F 30.3 in NNE 2 mph 2.7 mph 90 % 0 in
01:11 39.6 °F 37.2 °F 30.3 in Calm   3.1 mph 91 % 0 in
01:16 39.6 °F 37.6 °F 30.3 in Calm   3.1 mph 92 % 0 in
01:21 39.6 °F 37.8 °F 30.3 in NNW 1.3 mph 3.1 mph 93 % 0 in
01:26 39.4 °F 37.6 °F 30.3 in Calm   3.1 mph 93 % 0 in
01:31 39 °F 36.9 °F 30.3 in Calm   0.9 mph 92 % 0 in
01:36 38.7 °F 36.7 °F 30.3 in Calm   0.9 mph 92 % 0 in
01:41 38.5 °F 36.1 °F 30.3 in Calm     92 % 0 in
01:46 38.1 °F 36.1 °F 30.3 in WNW 1.1 mph 1.3 mph 92 % 0 in
01:51 37.9 °F 36 °F 30.3 in Calm   1.6 mph 92 % 0 in
01:56 37.8 °F 36 °F 30.3 in Calm   1.6 mph 93 % 0 in
02:02 32 °F 35.6 °F 0 in Calm     0 % 0 in
02:07 37.8 °F 36.1 °F 30.3 in Calm   2.5 mph 94 % 0 in
02:12 37.6 °F 36.1 °F 30.3 in NNE 2 mph 2.5 mph 94 % 0 in
02:17 37.6 °F 36 °F 30.3 in Calm   2 mph 94 % 0 in
02:22 37.2 °F 35.8 °F 30.3 in NE 1.1 mph 2 mph 94 % 0 in
02:27 37.6 °F 36.1 °F 30.3 in NNE 3.1 mph 3.8 mph 95 % 0 in
02:32 37.8 °F 36.5 °F 30.3 in NNE 2.9 mph 3.8 mph 95 % 0 in
02:37 37.8 °F 36.9 °F 30.3 in Calm   3.6 mph 96 % 0 in
02:42 37.6 °F 36.7 °F 30.4 in Calm   2.9 mph 96 % 0 in
02:47 37.6 °F 36.7 °F 30.4 in Calm     96 % 0 in
02:52 37.6 °F 36.7 °F 30.4 in Calm   2.5 mph 96 % 0 in
02:57 37.6 °F 36.7 °F 30.3 in Calm   2.5 mph 96 % 0 in
03:02 37.6 °F 36.3 °F 30.3 in Calm     96 % 0 in
03:07 37.6 °F 36.3 °F 30.3 in Calm     96 % 0 in
03:12 37.6 °F 36.3 °F 30.3 in NE 2.9 mph 2.9 mph 96 % 0 in
03:17 37.8 °F 37 °F 30.3 in NNE 3.6 mph 4.3 mph 97 % 0 in
03:22 37.8 °F 37 °F 30.3 in NE 2.7 mph 4.7 mph 97 % 0 in
03:27 37.8 °F 37 °F 30.3 in NNE 2.7 mph 4.7 mph 97 % 0 in
03:32 37.6 °F 36.9 °F 30.3 in Calm   4 mph 97 % 0 in
03:37 37.6 °F 36.9 °F 30.3 in Calm   3.6 mph 97 % 0 in
03:42 37.8 °F 37 °F 30.3 in North 3.8 mph 4.3 mph 97 % 0 in
03:47 37.8 °F 37 °F 30.3 in NE 2 mph 4.3 mph 97 % 0 in
03:52 37.6 °F 36.9 °F 30.3 in Calm   3.6 mph 97 % 0 in
03:57 37.6 °F 36.9 °F 30.4 in Calm   2 mph 97 % 0 in
04:02 37.6 °F 36.9 °F 30.4 in Calm   2.5 mph 97 % 0 in
04:07 37.6 °F 36.9 °F 30.4 in Calm   2.5 mph 97 % 0 in
04:12 37.2 °F 36.5 °F 30.3 in Calm     97 % 0 in
04:17 37.2 °F 36.5 °F 30.3 in Calm     97 % 0 in
04:22 37 °F 36.3 °F 30.3 in NNE 2.2 mph 2.7 mph 97 % 0 in
04:27 37 °F 36.7 °F 30.3 in Calm   2.7 mph 98 % 0 in
04:32 36.9 °F 36.3 °F 30.3 in Calm   2.7 mph 98 % 0 in
04:37 37 °F 36.7 °F 30.3 in Calm     98 % 0 in
04:42 37.2 °F 36.9 °F 30.3 in Calm   3.4 mph 98 % 0 in
04:47 37.6 °F 37 °F 30.3 in NE 2.9 mph 3.6 mph 98 % 0 in
04:52 37.6 °F 37 °F 30.3 in NE 2.5 mph 3.6 mph 98 % 0 in
04:57 37.2 °F 36.9 °F 30.3 in NE 2.7 mph 3.1 mph 98 % 0 in
05:02 37.2 °F 36.9 °F 30.3 in NE 3.4 mph 3.4 mph 98 % 0 in
05:07 37.2 °F 36.9 °F 30.3 in Calm   3.4 mph 98 % 0 in
05:12 37 °F 36.7 °F 30.3 in Calm   3.1 mph 98 % 0 in
05:17 36.9 °F 36.3 °F 30.3 in NE 1.1 mph 2 mph 98 % 0 in
05:22 37 °F 36.7 °F 30.3 in NE 2 mph 2.2 mph 98 % 0 in
05:27 37.2 °F 36.9 °F 30.3 in Calm   2.9 mph 98 % 0 in
05:32 37.6 °F 37 °F 30.3 in NE 3.8 mph 3.8 mph 98 % 0 in
05:37 37.6 °F 37 °F 30.3 in ENE 2.7 mph 3.8 mph 98 % 0 in
05:42 37.8 °F 37.2 °F 30.3 in NE 2.2 mph 3.8 mph 98 % 0 in
05:47 37.8 °F 37.2 °F 30.3 in Calm   3.4 mph 98 % 0 in
05:52 37.8 °F 37.2 °F 30.3 in NE 2.7 mph 2.9 mph 98 % 0 in
05:57 37.9 °F 37.6 °F 30.3 in ENE 2.5 mph 2.9 mph 98 % 0 in
06:02 38.1 °F 37.8 °F 30.3 in NE 2.9 mph 3.6 mph 98 % 0 in
06:07 38.5 °F 37.8 °F 30.3 in ENE 3.1 mph 3.6 mph 98 % 0 in
06:12 38.5 °F 37.9 °F 30.3 in ENE 2.9 mph 3.6 mph 98 % 0 in
06:17 38.5 °F 37.9 °F 30.3 in ENE 2 mph 3.4 mph 98 % 0 in
06:22 38.5 °F 37.9 °F 30.3 in NE 2.2 mph 3.4 mph 98 % 0 in
06:27 38.5 °F 37.9 °F 30.3 in Calm   2.7 mph 98 % 0 in
06:32 38.5 °F 37.8 °F 30.3 in Calm   2.2 mph 98 % 0 in
06:37 38.5 °F 37.8 °F 30.3 in Calm     98 % 0 in
06:42 38.5 °F 37.8 °F 30.3 in ENE 1.3 mph 2.5 mph 98 % 0 in
06:47 38.5 °F 37.8 °F 30.3 in ENE 2 mph 2.7 mph 98 % 0 in
06:52 38.5 °F 37.9 °F 30.3 in Calm   2.7 mph 98 % 0 in
06:57 38.5 °F 37.9 °F 30.3 in ENE 2 mph 2.5 mph 98 % 0 in
07:02 38.5 °F 37.9 °F 30.3 in ENE 0.9 mph 2.7 mph 98 % 0 in
07:07 38.7 °F 38.1 °F 30.3 in Calm   2.7 mph 98 % 0 in
07:12 38.7 °F 38.1 °F 30.3 in ENE 2.7 mph 2.9 mph 98 % 0 in
07:17 38.8 °F 38.5 °F 30.3 in Calm   2.9 mph 98 % 0 in
07:22 39 °F 38.5 °F 30.3 in ENE 1.6 mph 2.7 mph 98 % 0 in
07:27 39.2 °F 38.7 °F 30.3 in East 2.2 mph 3.1 mph 98 % 0 in
07:32 39.2 °F 38.7 °F 30.3 in East 2.5 mph 3.1 mph 98 % 0 in
07:37 39.4 °F 38.8 °F 30.3 in ENE 2 mph 3.1 mph 98 % 0 in
07:42 39.6 °F 39 °F 30.3 in ESE 2 mph 3.6 mph 98 % 0 in
07:47 39.7 °F 39.2 °F 30.3 in East 2.5 mph 3.6 mph 98 % 0 in
07:52 39.9 °F 39.4 °F 30.3 in Calm   3.4 mph 98 % 0 in
07:57 40.1 °F 39.6 °F 30.3 in East 2.5 mph 3.1 mph 98 % 0 in
08:02 40.3 °F 39.7 °F 30.3 in East 4.3 mph 4.3 mph 98 % 0 in
08:07 40.5 °F 39.9 °F 30.3 in ENE 4.3 mph 4.5 mph 98 % 0 in
08:12 40.5 °F 39.9 °F 30.3 in East 3.1 mph 4.5 mph 98 % 0 in
08:17 40.6 °F 40.1 °F 30.3 in ENE 4.9 mph 6.3 mph 98 % 0 in
08:22 40.8 °F 40.3 °F 30.3 in ESE 3.1 mph 6.3 mph 98 % 0 in
08:27 41 °F 40.5 °F 30.3 in East 3.4 mph 5.4 mph 98 % 0 in
08:32 41.4 °F 40.8 °F 30.3 in ESE 3.8 mph 6.3 mph 98 % 0 in
08:37 41.5 °F 41 °F 30.3 in ESE 4.7 mph 6.5 mph 98 % 0 in
08:42 41.5 °F 41 °F 30.3 in SSE 6.3 mph 6.7 mph 98 % 0 in
08:47 41.7 °F 41.2 °F 30.3 in ESE 4.9 mph 6.7 mph 98 % 0 in
08:52 41.9 °F 41.4 °F 30.3 in ESE 4.9 mph 8.5 mph 98 % 0 in
08:57 41.9 °F 41.4 °F 30.3 in ESE 2.7 mph 8.5 mph 98 % 0 in
09:02 42.1 °F 41.5 °F 30.3 in ESE 7.8 mph 7.8 mph 98 % 0 in
09:07 42.3 °F 41.7 °F 30.3 in East 5.4 mph 7.8 mph 98 % 0 in
09:12 42.4 °F 41.9 °F 30.3 in ESE 4.9 mph 7.8 mph 98 % 0 in
09:17 42.6 °F 42.1 °F 30.3 in ESE 3.8 mph 5.8 mph 98 % 0 in
09:22 43 °F 42.4 °F 30.4 in SE 5.6 mph 5.6 mph 98 % 0 in
09:27 43.3 °F 42.8 °F 30.4 in ESE 5.4 mph 8.7 mph 98 % 0 in
09:32 43.5 °F 43 °F 30.4 in ESE 6.5 mph 8.7 mph 98 % 0 in
09:37 43.9 °F 43.3 °F 30.3 in SSE 4.3 mph 8.7 mph 98 % 0 in
09:42 43.9 °F 43.3 °F 30.3 in SE 4.9 mph 8.1 mph 98 % 0 in
09:47 44.2 °F 43.5 °F 30.3 in SE 4.9 mph 8.1 mph 97 % 0 in
09:52 44.8 °F 43.9 °F 30.4 in SSE 5.8 mph 6.5 mph 97 % 0 in
09:57 45.1 °F 44.2 °F 30.4 in ESE 4.9 mph 7.8 mph 97 % 0 in
10:02 45.7 °F 44.8 °F 30.4 in SE 6.5 mph 7.8 mph 97 % 0 in
10:07 46.6 °F 45.3 °F 30.4 in SE 3.1 mph 6.7 mph 96 % 0 in
10:12 46.2 °F 45.1 °F 30.4 in ESE 2.7 mph 7.2 mph 96 % 0 in
10:17 46.6 °F 45.1 °F 30.4 in SSE 4.9 mph 7.2 mph 95 % 0 in
10:22 46.9 °F 45.7 °F 30.4 in SSE 3.6 mph 6.5 mph 95 % 0 in
10:27 47.5 °F 46.4 °F 30.4 in SSE 3.8 mph 6.5 mph 96 % 0 in
10:32 48.4 °F 46.9 °F 30.4 in South 2.7 mph 5.6 mph 95 % 0 in
10:37 48.7 °F 47.5 °F 30.3 in SE 6 mph 7.4 mph 95 % 0 in
10:42 49.1 °F 47.5 °F 30.3 in SSE 3.8 mph 7.4 mph 94 % 0 in
10:47 50 °F 48.4 °F 30.3 in SSE 3.1 mph 6.5 mph 94 % 0 in
10:52 51.3 °F 49.3 °F 30.3 in ESE 3.4 mph 6.5 mph 93 % 0 in
10:57 52.2 °F 49.3 °F 30.3 in SSE 2.9 mph 7.6 mph 90 % 0 in
11:02 51.4 °F 46.9 °F 30.3 in SSE 3.6 mph 7.6 mph 85 % 0 in
11:07 52.2 °F 47.1 °F 30.4 in ESE 2.2 mph 5.6 mph 83 % 0 in
11:12 53.1 °F 48.4 °F 30.4 in SE 2.5 mph 5.6 mph 84 % 0 in
11:17 53.4 °F 49.1 °F 30.4 in ESE 4 mph 5.4 mph 85 % 0 in
11:22 53.2 °F 46.9 °F 30.3 in ESE 6.3 mph 7.6 mph 79 % 0 in
11:27 53.2 °F 46.8 °F 30.3 in East 4.9 mph 8.5 mph 79 % 0 in
11:32 53.1 °F 45.3 °F 30.3 in SE 4.7 mph 8.5 mph 75 % 0 in
11:37 53.2 °F 45 °F 30.3 in ESE 7.2 mph 7.8 mph 73 % 0 in
11:42 54 °F 46.6 °F 30.3 in ESE 6 mph 7.8 mph 76 % 0 in
11:47 53.8 °F 44.1 °F 30.3 in SE 3.8 mph 7.6 mph 70 % 0 in
11:52 54.1 °F 45.9 °F 30.3 in SE 5.6 mph 7.8 mph 73 % 0 in
11:57 54.9 °F 45.7 °F 30.3 in SE 5.8 mph 7.8 mph 71 % 0 in
12:02 55.2 °F 45.7 °F 30.3 in ESE 4.3 mph 7.2 mph 70 % 0 in
12:07 55.8 °F 46.6 °F 30.3 in SE 5.8 mph 7.4 mph 71 % 0 in
12:12 55.9 °F 45.1 °F 30.3 in SSE 5.6 mph 7.4 mph 67 % 0 in
12:17 56.3 °F 45.9 °F 30.3 in SE 4.3 mph 6.3 mph 68 % 0 in
12:22 56.7 °F 45.9 °F 30.3 in SSE 5.8 mph 6.3 mph 67 % 0 in
12:27 56.8 °F 44.4 °F 30.3 in South 5.8 mph 8.5 mph 63 % 0 in
12:32 57.4 °F 45.3 °F 30.3 in SE 4.5 mph 8.9 mph 64 % 0 in
12:37 57.4 °F 43.2 °F 30.3 in SSW 4.9 mph 8.9 mph 59 % 0 in
12:42 57.9 °F 41.9 °F 30.3 in SSE 7.6 mph 7.8 mph 55 % 0 in
12:47 58.3 °F 41.7 °F 30.3 in South 9.6 mph 9.6 mph 54 % 0 in
12:52 58.5 °F 40.5 °F 30.3 in SSE 3.4 mph 9.6 mph 51 % 0 in
12:58 58.6 °F 39.9 °F 30.3 in South 4 mph 8.5 mph 50 % 0 in
13:03 58.8 °F 39.7 °F 30.3 in South 3.1 mph 8.1 mph 49 % 0 in
13:08 58.5 °F 38.8 °F 30.3 in South 6.5 mph 12.8 mph 48 % 0 in
13:13 58.6 °F 39 °F 30.3 in SSE 7.6 mph 12.8 mph 48 % 0 in
13:18 58.8 °F 39.2 °F 30.3 in South 5.6 mph 7.8 mph 48 % 0 in
13:23 59 °F 39.4 °F 30.3 in SSE 5.6 mph 7.8 mph 48 % 0 in
13:28 59.2 °F 39.9 °F 30.3 in SSW 5.6 mph 8.7 mph 49 % 0 in
13:33 59.2 °F 39.6 °F 30.3 in SSE 6.3 mph 8.7 mph 48 % 0 in
13:38 59 °F 39.7 °F 30.3 in SE 4.9 mph 7.6 mph 49 % 0 in
13:43 59.5 °F 40.3 °F 30.3 in SSE 6 mph 6.3 mph 49 % 0 in
13:48 59.7 °F 40.5 °F 30.3 in SSE 3.4 mph 6.3 mph 49 % 0 in
13:53 59.9 °F 40.1 °F 30.3 in SE 4 mph 7.4 mph 48 % 0 in
13:58 59.9 °F 40.6 °F 30.3 in South 5.8 mph 7.8 mph 49 % 0 in
14:03 59.9 °F 40.6 °F 30.3 in SSW 4.9 mph 7.8 mph 49 % 0 in
14:08 59.9 °F 40.1 °F 30.3 in SE 3.8 mph 6.3 mph 48 % 0 in
14:13 60.1 °F 40.8 °F 30.3 in SSW 1.6 mph 6.3 mph 49 % 0 in
14:18 59.9 °F 40.6 °F 30.3 in SSE 5.8 mph 7.2 mph 49 % 0 in
14:23 59.5 °F 40.3 °F 30.3 in SE 3.8 mph 7.4 mph 49 % 0 in
14:28 59.7 °F 39.9 °F 30.3 in SSE 4.3 mph 7.8 mph 48 % 0 in
14:33 60.1 °F 40.8 °F 30.3 in SSW 3.1 mph 7.8 mph 49 % 0 in
14:38 60.4 °F 40.6 °F 30.3 in SSW 2.7 mph 7.4 mph 48 % 0 in
14:43 61.2 °F 41.7 °F 30.3 in South 3.8 mph 7.6 mph 49 % 0 in
14:48 61.2 °F 40.6 °F 30.3 in SSE 5.6 mph 8.7 mph 47 % 0 in
14:53 61.2 °F 41.4 °F 30.3 in South 3.8 mph 8.7 mph 48 % 0 in
14:58 61.3 °F 42.1 °F 30.3 in SSE 5.4 mph 6.5 mph 49 % 0 in
15:03 61.3 °F 41.4 °F 30.3 in SSE 3.8 mph 7.4 mph 48 % 0 in
15:08 61.5 °F 41.5 °F 30.3 in South 5.4 mph 7.4 mph 48 % 0 in
15:13 61.2 °F 40.6 °F 30.3 in SSE 5.4 mph 7.2 mph 47 % 0 in
15:18 60.8 °F 40.5 °F 30.3 in SSE 5.8 mph 7.2 mph 47 % 0 in
15:23 60.8 °F 40.5 °F 30.2 in SSW 1.6 mph 7.2 mph 47 % 0 in
15:28 61.5 °F 41.5 °F 30.2 in SSE 3.4 mph 6.3 mph 48 % 0 in
15:33 61.5 °F 41.7 °F 30.2 in SE 5.4 mph 5.8 mph 48 % 0 in
15:38 61.3 °F 41.4 °F 30.3 in SSE 5.4 mph 6 mph 48 % 0 in
15:43 61.5 °F 41.5 °F 30.3 in SSW 5.6 mph 6.7 mph 48 % 0 in
15:48 61.3 °F 41.4 °F 30.3 in South 2.9 mph 6.7 mph 48 % 0 in
15:53 61.2 °F 41.4 °F 30.3 in SSW 3.8 mph 8.7 mph 48 % 0 in
15:58 60.8 °F 40.8 °F 30.3 in South 6 mph 8.7 mph 48 % 0 in
16:03 60.6 °F 40.8 °F 30.3 in South 0.9 mph 8.1 mph 48 % 0 in
16:08 60.8 °F 40.8 °F 30.3 in SE 3.4 mph 7.4 mph 48 % 0 in
16:13 60.8 °F 40.8 °F 30.3 in South 4 mph 6 mph 48 % 0 in
16:18 60.8 °F 41.5 °F 30.3 in Calm   5.8 mph 49 % 0 in
16:23 60.3 °F 41 °F 30.3 in South 5.8 mph 7.4 mph 49 % 0 in
16:28 59.9 °F 40.6 °F 30.3 in SSW 5.8 mph 7.4 mph 49 % 0 in
16:33 59.9 °F 41.2 °F 30.3 in South 8.5 mph 8.5 mph 50 % 0 in
16:38 59.4 °F 40.6 °F 30.3 in SSW 5.8 mph 8.7 mph 50 % 0 in
16:43 59 °F 40.5 °F 30.3 in South 4.3 mph 8.7 mph 50 % 0 in
16:48 58.8 °F 40.6 °F 30.3 in South 3.8 mph 8.5 mph 51 % 0 in
16:53 58.8 °F 41.2 °F 30.3 in SSE 4.3 mph 7.6 mph 52 % 0 in
16:58 58.6 °F 41.5 °F 30.3 in SSE 3.6 mph 8.1 mph 53 % 0 in
17:03 58.6 °F 41.5 °F 30.3 in South 4.9 mph 8.1 mph 53 % 0 in
17:08 58.5 °F 41.9 °F 30.2 in South 3.4 mph 5.6 mph 54 % 0 in
17:13 58.3 °F 41.7 °F 30.2 in South 3.1 mph 5.6 mph 54 % 0 in
17:18 58.1 °F 42.1 °F 30.2 in South 3.4 mph 6.5 mph 55 % 0 in
17:23 57.9 °F 42.3 °F 30.2 in SSE 3.1 mph 6.5 mph 56 % 0 in
17:28 57.7 °F 42.3 °F 30.2 in South 2.5 mph 6.3 mph 56 % 0 in
17:33 57.4 °F 41.7 °F 30.2 in South 2 mph 6.5 mph 56 % 0 in
17:38 57.2 °F 41.7 °F 30.2 in South 2.9 mph 6.5 mph 56 % 0 in
17:43 57 °F 42.1 °F 30.2 in South 3.4 mph 5.4 mph 57 % 0 in
17:48 56.8 °F 42.3 °F 30.2 in SSW 6.5 mph 6.5 mph 58 % 0 in
17:53 56.7 °F 42.1 °F 30.2 in SSE 2.9 mph 7.4 mph 58 % 0 in
17:58 56.3 °F 42.3 °F 30.2 in SSE 2.7 mph 7.4 mph 59 % 0 in
18:03 55.8 °F 42.1 °F 30.2 in SSE 2.2 mph 6 mph 60 % 0 in
18:08 55.6 °F 41.7 °F 30.2 in SSE 3.6 mph 3.8 mph 60 % 0 in
18:13 55 °F 42.3 °F 30.2 in SSE 2.2 mph 3.8 mph 62 % 0 in
18:18 54.7 °F 42.3 °F 30.2 in SSE 2.5 mph 5.4 mph 63 % 0 in
18:23 54.1 °F 41.9 °F 30.2 in SE 2.7 mph 5.4 mph 63 % 0 in
18:28 54 °F 42.1 °F 30.2 in SSE 2 mph 4.9 mph 64 % 0 in
18:33 53.2 °F 41.5 °F 30.2 in Calm   3.6 mph 64 % 0 in
18:38 53.2 °F 41.7 °F 30.2 in Calm   3.6 mph 65 % 0 in
18:43 52.5 °F 41.5 °F 30.2 in Calm   3.8 mph 66 % 0 in
18:48 52.3 °F 41.4 °F 30.2 in SSE 3.6 mph 4.3 mph 66 % 0 in
18:53 52 °F 40.8 °F 30.2 in SE 2.5 mph 4.3 mph 66 % 0 in
18:58 51.6 °F 41 °F 30.2 in SSE 2.7 mph 4 mph 67 % 0 in
19:03 51.4 °F 40.8 °F 30.2 in SSE 1.6 mph 3.6 mph 67 % 0 in
19:08 51.1 °F 40.8 °F 30.3 in SSE 2.5 mph 3.6 mph 68 % 0 in
19:13 50.9 °F 40.6 °F 30.3 in SSE 2 mph 3.1 mph 68 % 0 in
19:18 50.5 °F 40.6 °F 30.3 in Calm   3.4 mph 69 % 0 in
19:23 50.4 °F 40.6 °F 30.2 in SE 1.1 mph 3.4 mph 69 % 0 in
19:28 50.2 °F 40.5 °F 30.2 in SE 0.9 mph 3.4 mph 69 % 0 in
19:33 49.8 °F 39.9 °F 30.2 in SE 2.7 mph 3.4 mph 69 % 0 in
19:38 49.6 °F 40.3 °F 30.3 in Calm   3.4 mph 70 % 0 in
19:43 49.5 °F 40.5 °F 30.3 in Calm   3.1 mph 71 % 0 in
19:48 49.1 °F 40.1 °F 30.3 in Calm   1.3 mph 71 % 0 in
19:53 49.1 °F 40.1 °F 30.3 in Calm   3.6 mph 71 % 0 in
19:58 48.7 °F 39.7 °F 30.3 in SE 1.1 mph 3.6 mph 71 % 0 in
20:03 48.6 °F 39.9 °F 30.3 in Calm   3.4 mph 72 % 0 in
20:08 48.6 °F 39.9 °F 30.3 in SE 2.7 mph 2.9 mph 72 % 0 in
20:13 48.4 °F 40.1 °F 30.3 in SSE 2.7 mph 3.4 mph 73 % 0 in
20:18 48.4 °F 40.1 °F 30.3 in SSE 1.6 mph 3.4 mph 73 % 0 in
20:23 48.4 °F 40.1 °F 30.3 in SSE 2 mph 3.6 mph 73 % 0 in
20:28 48.2 °F 39.9 °F 30.3 in SSE 2.2 mph 3.6 mph 73 % 0 in
20:33 48 °F 39.7 °F 30.3 in SSE 1.6 mph 3.4 mph 73 % 0 in
20:38 47.8 °F 39.6 °F 30.3 in Calm   2.9 mph 73 % 0 in
20:43 47.5 °F 39.6 °F 30.3 in Calm   2.7 mph 74 % 0 in
20:48 47.5 °F 39.6 °F 30.3 in Calm   2.5 mph 74 % 0 in
20:53 47.3 °F 39.7 °F 30.3 in SSE 1.6 mph 2.5 mph 75 % 0 in
20:58 47.1 °F 39.6 °F 30.3 in Calm   2.5 mph 75 % 0 in
21:03 46.9 °F 39.6 °F 30.3 in Calm     75 % 0 in
21:08 46.8 °F 39.6 °F 30.3 in Calm   1.1 mph 76 % 0 in
21:13 46.6 °F 39.6 °F 30.3 in Calm   2.5 mph 76 % 0 in
21:18 46.6 °F 39.4 °F 30.3 in Calm   2.5 mph 76 % 0 in
21:23 46.2 °F 39.6 °F 30.3 in SE 1.1 mph 2.7 mph 77 % 0 in
21:28 45.9 °F 39 °F 30.3 in Calm   2.7 mph 77 % 0 in
21:33 45.9 °F 39.6 °F 30.3 in Calm   1.1 mph 78 % 0 in
21:38 45.9 °F 39.4 °F 30.3 in Calm   2.5 mph 78 % 0 in
21:43 45.3 °F 39.4 °F 30.3 in Calm   2.5 mph 79 % 0 in
21:48 45.1 °F 39 °F 30.3 in Calm   1.1 mph 79 % 0 in
21:53 45 °F 38.8 °F 30.2 in Calm     79 % 0 in
21:58 44.4 °F 38.5 °F 30.2 in Calm     79 % 0 in
22:03 44.2 °F 38.7 °F 30.2 in Calm     80 % 0 in
22:08 44.1 °F 38.5 °F 30.2 in Calm     81 % 0 in
22:13 44.1 °F 38.5 °F 30.2 in Calm     81 % 0 in
22:18 43.9 °F 38.7 °F 30.2 in Calm     82 % 0 in
22:23 43.9 °F 38.7 °F 30.2 in Calm   1.1 mph 82 % 0 in
22:28 43.9 °F 38.7 °F 30.2 in Calm   2.9 mph 82 % 0 in
22:33 43.9 °F 39 °F 30.2 in SSE 2.2 mph 2.9 mph 83 % 0 in
22:38 43.9 °F 39 °F 30.2 in SSE 2.5 mph 2.9 mph 83 % 0 in
22:43 44.1 °F 39.6 °F 30.2 in SE 2.2 mph 3.1 mph 84 % 0 in
22:48 44.1 °F 39.6 °F 30.2 in Calm   3.1 mph 84 % 0 in
22:51 44.1 °F 39.6 °F 30.2 in Calm   3.1 mph 84 % 0 in
22:56 43.9 °F 39.4 °F 30.2 in SE 2 mph 2.2 mph 84 % 0 in
23:01 44.1 °F 39.6 °F 30.2 in SSE 1.6 mph 3.4 mph 84 % 0 in
23:06 44.1 °F 39.6 °F 30.2 in SSE 2 mph 3.4 mph 84 % 0 in
23:11 44.1 °F 39.6 °F 30.2 in SSE 1.6 mph 2.5 mph 84 % 0 in
23:16 43.9 °F 39.4 °F 30.2 in Calm   2.5 mph 84 % 0 in
23:21 43.9 °F 39.4 °F 30.2 in Calm   2.5 mph 84 % 0 in
23:26 43.9 °F 39.6 °F 30.2 in Calm   2.5 mph 85 % 0 in
23:31 43.5 °F 39.4 °F 30.2 in Calm     85 % 0 in
23:36 43.5 °F 39 °F 30.2 in SSE 2 mph 2.7 mph 84 % 0 in
23:41 43.3 °F 39 °F 30.2 in Calm   4.3 mph 85 % 0 in
23:46 43.5 °F 39.4 °F 30.2 in South 2.5 mph 4.3 mph 85 % 0 in
23:51 43.5 °F 39.4 °F 30.2 in SSW 2 mph 3.4 mph 85 % 0 in
23:56 43.5 °F 39.4 °F 30.2 in South 1.3 mph 3.4 mph 85 % 0 in
Le Gheer Warneton
Courtoisie de Weather Underground - 2.5 mb

Mise a jour : 18/12/2017 17:42:12
Généré par Cumulus 1.9.4 (1099)